Time;durP1;ratioP1;P1;durP2;ratioP2;P2;SDS_P1;SDS_P2;PMS_P1;PMS_P2;Temp;Humidity;BMP_temperature;BMP_pressure;BME280_temperature;BME280_humidity;BME280_pressure;Samples;Min_cycle;Max_cycle;Signal;HPM_P1;HPM_P2
2022/07/08 00:00:25;;;;;;;3.50;3.20;;;;;;;27.05;51.58;101198.70;1687274;83;21059;-49
2022/07/08 00:02:51;;;;;;;3.65;3.35;;;;;;;27.02;51.80;101192.27;1693153;83;21087;-49
2022/07/08 00:05:19;;;;;;;3.52;3.22;;;;;;;27.01;51.93;101206.61;1692084;83;21039;-50
2022/07/08 00:07:45;;;;;;;4.28;3.62;;;;;;;26.95;51.95;101193.77;1691362;83;21031;-49
2022/07/08 00:10:12;;;;;;;3.45;3.22;;;;;;;26.87;52.15;101190.03;1692557;84;21059;-49
2022/07/08 00:12:40;;;;;;;3.98;3.67;;;;;;;26.79;52.34;101190.64;1690929;83;21512;-51
2022/07/08 00:15:09;;;;;;;6.17;4.08;;;;;;;26.73;52.38;101190.32;1683174;83;21043;-49
2022/07/08 00:17:36;;;;;;;6.20;3.95;;;;;;;26.69;52.29;101192.34;1689408;84;21079;-51
2022/07/08 00:20:06;;;;;;;4.25;3.85;;;;;;;26.66;52.24;101189.94;1689950;83;20996;-49
2022/07/08 00:22:33;;;;;;;4.20;3.80;;;;;;;26.65;52.05;101190.07;1690596;83;21043;-50
2022/07/08 00:25:00;;;;;;;4.58;4.12;;;;;;;26.63;52.26;101198.18;1690724;83;21055;-49
2022/07/08 00:27:27;;;;;;;4.30;3.60;;;;;;;26.62;52.24;101192.50;1690680;83;21030;-48
2022/07/08 00:29:54;;;;;;;4.10;3.80;;;;;;;26.59;52.22;101196.73;1691189;83;21047;-52
2022/07/08 00:32:21;;;;;;;4.25;3.85;;;;;;;26.60;52.00;101199.78;1693494;83;21059;-54
2022/07/08 00:34:49;;;;;;;4.60;4.20;;;;;;;26.58;52.14;101192.39;1692841;83;21035;-50
2022/07/08 00:37:17;;;;;;;3.83;3.40;;;;;;;26.55;51.98;101191.28;1692009;83;21044;-49
2022/07/08 00:39:44;;;;;;;4.03;3.72;;;;;;;26.55;51.92;101197.95;1691324;83;21075;-52
2022/07/08 00:42:11;;;;;;;4.05;3.65;;;;;;;26.53;52.00;101197.23;1692521;84;21027;-50
2022/07/08 00:44:38;;;;;;;4.28;3.87;;;;;;;26.52;51.99;101192.89;1693448;83;21044;-55
2022/07/08 00:47:06;;;;;;;4.50;3.87;;;;;;;26.49;52.26;101187.78;1693296;83;21004;-50
2022/07/08 00:49:33;;;;;;;4.55;3.77;;;;;;;26.45;52.10;101195.20;1691969;83;21548;-52
2022/07/08 00:52:00;;;;;;;3.65;3.33;;;;;;;26.43;52.12;101189.62;1690325;83;21039;-53
2022/07/08 00:54:26;;;;;;;4.85;3.50;;;;;;;26.41;52.41;101187.56;1690532;83;21476;-50
2022/07/08 00:56:54;;;;;;;4.37;3.60;;;;;;;26.40;52.34;101179.17;1690412;83;21060;-49
2022/07/08 00:59:21;;;;;;;3.70;3.40;;;;;;;26.38;52.59;101179.31;1690331;83;21583;-50
2022/07/08 01:01:49;;;;;;;3.92;3.62;;;;;;;26.34;52.54;101179.67;1692204;83;21090;-49
2022/07/08 01:04:16;;;;;;;4.00;3.60;;;;;;;26.30;52.61;101180.41;1693436;83;21028;-49
2022/07/08 01:06:43;;;;;;;3.72;3.37;;;;;;;26.28;52.54;101181.50;1689382;83;21051;-53
2022/07/08 01:09:10;;;;;;;5.20;4.00;;;;;;;26.23;52.88;101181.89;1689144;84;21035;-50
2022/07/08 01:11:37;;;;;;;4.08;3.72;;;;;;;26.21;53.09;101181.65;1695471;83;21496;-49
2022/07/08 01:14:04;;;;;;;4.17;3.55;;;;;;;26.19;53.26;101175.11;1692206;83;21071;-49
2022/07/08 01:16:33;;;;;;;4.22;3.67;;;;;;;26.19;53.29;101184.92;1677355;84;21007;-49
2022/07/08 01:19:00;;;;;;;5.42;3.90;;;;;;;26.16;53.29;101180.67;1693579;83;21532;-49
2022/07/08 01:21:27;;;;;;;3.83;3.52;;;;;;;26.16;53.29;101180.67;1693249;83;21066;-49
2022/07/08 01:23:54;;;;;;;4.08;3.77;;;;;;;26.17;53.36;101186.87;1691221;83;21039;-55
2022/07/08 01:26:21;;;;;;;4.05;3.65;;;;;;;26.14;53.05;101187.95;1690742;83;21031;-49
2022/07/08 01:28:48;;;;;;;3.80;3.50;;;;;;;26.11;53.06;101188.69;1693425;83;21035;-51
2022/07/08 01:31:15;;;;;;;4.10;3.70;;;;;;;26.14;53.11;101192.43;1689073;83;21051;-54
2022/07/08 01:33:42;;;;;;;4.28;3.47;;;;;;;26.13;53.23;101186.75;1691818;83;21043;-49
2022/07/08 01:36:09;;;;;;;3.95;3.60;;;;;;;26.13;53.32;101193.42;1693554;83;21043;-50
2022/07/08 01:38:36;;;;;;;4.92;3.58;;;;;;;26.12;53.28;101193.04;1693848;83;21586;-51
2022/07/08 01:41:04;;;;;;;3.58;3.27;;;;;;;26.11;53.31;101192.19;1690984;83;21058;-52
2022/07/08 01:43:31;;;;;;;7.45;3.35;;;;;;;26.08;53.49;101195.59;1692454;83;21004;-50
2022/07/08 01:46:00;;;;;;;4.00;3.60;;;;;;;26.07;53.53;101198.73;1692654;84;21059;-49
2022/07/08 01:48:27;;;;;;;3.52;3.22;;;;;;;26.08;53.74;101197.78;1693440;83;21052;-49
2022/07/08 01:50:53;;;;;;;4.00;3.70;;;;;;;26.10;53.49;101205.65;1693839;83;21508;-50
2022/07/08 01:53:20;;;;;;;3.80;3.50;;;;;;;26.08;53.50;101208.45;1690759;83;21007;-51
2022/07/08 01:55:49;;;;;;;4.10;3.60;;;;;;;26.09;53.58;101211.97;1690322;83;20996;-50
2022/07/08 01:58:16;;;;;;;4.80;3.47;;;;;;;26.08;53.79;101205.78;1690964;83;21043;-52
2022/07/08 02:00:43;;;;;;;3.90;3.42;;;;;;;26.12;53.59;101213.05;1690460;83;21031;-48
2022/07/08 02:03:12;;;;;;;4.42;3.77;;;;;;;26.14;53.56;101212.44;1690470;83;21535;-50
2022/07/08 02:05:40;;;;;;;3.85;3.08;;;;;;;26.14;53.23;101217.77;1689356;83;21051;-49
2022/07/08 02:08:06;;;;;;;4.20;3.80;;;;;;;26.13;53.22;101220.09;1692692;84;21491;-50
2022/07/08 02:13:06;;;;;;;4.80;4.08;;;;;;;26.07;53.27;101208.06;1637594;85;21097;-50
2022/07/08 02:15:33;;;;;;;3.40;3.20;;;;;;;26.10;53.19;101224.32;1645837;85;21424;-50
2022/07/08 02:18:00;;;;;;;3.90;3.60;;;;;;;26.08;53.20;101222.26;1640264;85;21063;-48
2022/07/08 02:20:28;;;;;;;4.33;3.47;;;;;;;26.03;53.66;101216.42;1639266;86;21066;-49
2022/07/08 02:22:55;;;;;;;4.00;3.60;;;;;;;26.03;53.66;101216.42;1636835;86;21032;-51
2022/07/08 02:25:22;;;;;;;4.50;3.47;;;;;;;25.98;53.54;101219.92;1637629;85;21069;-54
2022/07/08 02:27:49;;;;;;;4.22;3.85;;;;;;;25.98;53.54;101219.92;1639706;85;21531;-53
2022/07/08 02:30:16;;;;;;;4.12;3.62;;;;;;;25.96;53.53;101219.19;1638799;85;21051;-49
2022/07/08 02:32:43;;;;;;;4.60;3.85;;;;;;;25.96;53.42;101219.19;1647240;87;21556;-53
2022/07/08 02:35:09;;;;;;;3.98;3.60;;;;;;;25.96;53.33;101218.72;1636614;85;21060;-51
2022/07/08 02:37:36;;;;;;;4.85;3.60;;;;;;;25.97;53.52;101219.54;1637756;86;21560;-50
2022/07/08 02:40:05;;;;;;;3.80;3.50;;;;;;;25.96;53.44;101220.53;1686661;83;21097;-50
2022/07/08 02:42:32;;;;;;;4.20;3.80;;;;;;;25.95;53.65;101224.14;1693151;83;21498;-50
2022/07/08 02:44:59;;;;;;;4.20;3.80;;;;;;;25.96;54.02;101223.19;1646440;86;21129;-49
2022/07/08 02:47:26;;;;;;;4.15;3.75;;;;;;;25.94;53.66;101225.12;1693031;83;21007;-52
2022/07/08 02:49:53;;;;;;;5.45;3.47;;;;;;;25.89;53.40;101223.30;1659737;84;21081;-53
2022/07/08 02:52:20;;;;;;;4.15;3.85;;;;;;;25.87;53.62;101218.56;1730181;81;21023;-49
2022/07/08 02:54:47;;;;;;;3.72;3.42;;;;;;;25.87;54.02;101231.89;1701109;84;21026;-49
2022/07/08 02:57:14;;;;;;;3.85;3.42;;;;;;;25.84;53.91;101230.34;1699872;84;21026;-52
2022/07/08 02:59:41;;;;;;;4.15;3.77;;;;;;;25.82;53.92;101229.11;1698963;84;21059;-49
2022/07/08 03:02:08;;;;;;;4.10;3.62;;;;;;;25.82;53.92;101229.11;1700214;84;21077;-50
2022/07/08 03:04:35;;;;;;;3.83;3.52;;;;;;;25.83;54.17;101232.16;1701086;84;21022;-55
2022/07/08 03:07:02;;;;;;;3.70;3.40;;;;;;;25.86;54.11;101238.21;1736427;81;21003;-49
2022/07/08 03:09:29;;;;;;;3.92;3.62;;;;;;;25.86;54.31;101230.22;1699293;84;21034;-49
2022/07/08 03:11:56;;;;;;;3.87;3.42;;;;;;;25.88;54.27;101238.94;1691124;84;21050;-50
2022/07/08 03:14:23;;;;;;;9.50;3.85;;;;;;;25.87;54.06;101234.56;1696441;84;21070;-54
2022/07/08 03:16:50;;;;;;;4.20;3.72;;;;;;;25.84;54.09;101236.50;1700000;84;21083;-54
2022/07/08 03:19:16;;;;;;;4.40;3.50;;;;;;;25.84;54.08;101239.16;1731335;82;21035;-55
2022/07/08 03:21:43;;;;;;;4.10;3.80;;;;;;;25.83;54.36;101242.81;1738955;81;21551;-49
2022/07/08 03:24:12;;;;;;;5.00;3.87;;;;;;;25.84;54.32;101241.83;1735102;81;20999;-52
2022/07/08 03:26:39;;;;;;;4.12;3.58;;;;;;;25.86;54.25;101238.21;1733499;81;21522;-50
2022/07/08 03:29:06;;;;;;;5.47;3.85;;;;;;;25.86;54.55;101238.21;1733849;81;21015;-51
2022/07/08 03:31:33;;;;;;;4.03;3.55;;;;;;;25.86;54.42;101233.73;1733058;81;21051;-49
2022/07/08 03:34:00;;;;;;;4.42;3.92;;;;;;;25.88;54.42;101239.80;1733610;81;21518;-52
2022/07/08 03:36:29;;;;;;;6.30;3.90;;;;;;;25.88;54.13;101230.94;1734675;81;21027;-53
2022/07/08 03:38:55;;;;;;;4.25;3.95;;;;;;;25.88;54.13;101230.94;1701084;84;21014;-49
2022/07/08 03:41:23;;;;;;;4.37;4.03;;;;;;;25.90;54.30;101237.86;1701074;84;21036;-49
2022/07/08 03:43:52;;;;;;;4.92;4.00;;;;;;;25.90;53.94;101234.34;1732073;82;21063;-54
2022/07/08 03:46:20;;;;;;;4.00;3.70;;;;;;;25.89;54.21;101238.81;1700931;84;21026;-49
2022/07/08 03:48:47;;;;;;;4.35;4.05;;;;;;;25.91;54.01;101238.69;1735937;81;20967;-52
2022/07/08 03:51:15;;;;;;;5.75;3.58;;;;;;;26.03;53.50;101236.42;1733382;81;21023;-50
2022/07/08 03:53:43;;;;;;;4.85;4.12;;;;;;;26.26;53.63;101239.47;1733518;81;21023;-51
2022/07/08 03:56:10;;;;;;;4.03;3.62;;;;;;;26.56;52.88;101241.86;1733518;81;21472;-50
2022/07/08 03:58:37;;;;;;;5.05;4.20;;;;;;;26.83;52.00;101239.32;1733287;81;21014;-49
2022/07/08 04:01:05;;;;;;;4.25;3.95;;;;;;;26.93;51.58;101241.11;1736446;81;21112;-49
2022/07/08 04:03:33;;;;;;;4.28;3.87;;;;;;;26.94;51.25;101240.13;1707506;83;21049;-49
2022/07/08 04:06:00;;;;;;;4.28;3.95;;;;;;;26.98;51.30;101240.71;1714112;83;21022;-49
2022/07/08 04:08:27;;;;;;;4.12;3.72;;;;;;;26.96;51.06;101239.52;1712487;82;21070;-49
2022/07/08 04:10:54;;;;;;;4.53;4.20;;;;;;;26.93;51.17;101246.45;1711951;83;21042;-51
2022/07/08 04:13:23;;;;;;;3.67;3.47;;;;;;;26.89;51.27;101249.50;1712790;83;21080;-49
2022/07/08 04:15:51;;;;;;;4.58;4.17;;;;;;;26.83;51.25;101241.98;1707782;83;21466;-49
2022/07/08 04:18:19;;;;;;;3.95;3.65;;;;;;;26.73;51.30;101237.87;1711149;83;21053;-49
2022/07/08 04:20:45;;;;;;;4.08;3.77;;;;;;;26.67;51.49;101247.68;1710901;83;21044;-49
2022/07/08 04:23:12;;;;;;;5.35;3.95;;;;;;;26.59;51.65;101242.11;1711979;83;21545;-50
2022/07/08 04:25:39;;;;;;;3.75;3.50;;;;;;;26.53;51.66;101254.14;1714048;83;21026;-49
2022/07/08 04:28:06;;;;;;;4.30;3.72;;;;;;;26.47;51.94;101258.64;1714105;83;21483;-54
2022/07/08 04:30:34;;;;;;;4.50;4.03;;;;;;;26.45;52.05;101255.72;1711763;83;21099;-52
2022/07/08 04:33:03;;;;;;;4.03;3.62;;;;;;;26.44;52.04;101254.04;1712562;83;21069;-54
2022/07/08 04:35:30;;;;;;;4.33;4.03;;;;;;;26.41;52.02;101254.27;1713138;83;20978;-50
2022/07/08 04:37:57;;;;;;;4.45;4.05;;;;;;;26.38;52.12;101260.69;1713951;83;21007;-52
2022/07/08 04:40:24;;;;;;;5.08;3.92;;;;;;;26.37;52.37;101258.16;1713693;83;21029;-54
2022/07/08 04:42:51;;;;;;;4.53;4.15;;;;;;;26.39;52.32;101257.55;1712014;83;21069;-49
2022/07/08 04:45:19;;;;;;;4.22;3.83;;;;;;;26.42;52.17;101261.32;1710673;83;21506;-51
2022/07/08 04:47:46;;;;;;;4.53;4.12;;;;;;;26.43;52.13;101260.33;1711447;83;21057;-50
2022/07/08 04:50:13;;;;;;;4.08;3.77;;;;;;;26.43;52.11;101263.86;1710854;83;21030;-49
2022/07/08 04:52:40;;;;;;;4.50;3.98;;;;;;;26.48;52.12;101260.31;1710841;83;21057;-53
2022/07/08 04:55:08;;;;;;;4.30;4.00;;;;;;;26.54;52.09;101260.34;1713116;83;21490;-49
2022/07/08 04:57:35;;;;;;;4.62;4.20;;;;;;;26.58;51.96;101257.78;1714009;83;21053;-50
2022/07/08 05:00:03;;;;;;;4.78;4.40;;;;;;;26.63;51.85;101259.58;1713466;83;21056;-50
2022/07/08 05:02:30;;;;;;;5.03;4.08;;;;;;;26.68;51.96;101264.08;1707603;83;21022;-54
2022/07/08 05:04:56;;;;;;;5.62;4.08;;;;;;;26.72;51.89;101258.02;1707454;83;21084;-52
2022/07/08 05:07:23;;;;;;;4.28;3.90;;;;;;;26.77;51.91;101262.01;1745211;82;21475;-51
2022/07/08 05:09:50;;;;;;;4.50;4.08;;;;;;;26.84;51.63;101267.23;1737576;81;21055;-50
2022/07/08 05:12:17;;;;;;;4.50;4.10;;;;;;;26.91;51.43;101269.77;1741531;81;21093;-48
2022/07/08 05:14:44;;;;;;;5.87;3.85;;;;;;;27.04;51.53;101277.13;1700524;83;21083;-50
2022/07/08 05:17:11;;;;;;;4.22;3.77;;;;;;;27.18;51.10;101259.46;1740376;81;21023;-49
2022/07/08 05:19:38;;;;;;;4.53;4.12;;;;;;;27.35;50.81;101264.30;1741625;81;21007;-54
2022/07/08 05:22:05;;;;;;;5.90;4.15;;;;;;;27.50;50.48;101255.95;1733066;82;21069;-50
2022/07/08 05:24:32;;;;;;;5.10;4.22;;;;;;;27.67;50.30;101252.72;1744708;81;21479;-53
2022/07/08 05:26:59;;;;;;;4.58;4.17;;;;;;;27.87;50.04;101254.52;1706044;83;21033;-49
2022/07/08 05:29:26;;;;;;;4.25;3.87;;;;;;;28.11;49.45;101256.44;1705706;83;21021;-49
2022/07/08 05:31:54;;;;;;;4.87;4.15;;;;;;;28.32;48.76;101256.39;1705850;83;20994;-49
2022/07/08 05:34:21;;;;;;;4.40;3.87;;;;;;;28.53;48.28;101255.36;1705586;83;21034;-50
2022/07/08 05:36:49;;;;;;;4.85;4.50;;;;;;;28.68;47.97;101248.69;1705959;83;20970;-51
2022/07/08 05:39:16;;;;;;;5.40;4.40;;;;;;;28.74;47.68;101246.79;1708390;83;21022;-50
2022/07/08 05:41:43;;;;;;;4.60;4.20;;;;;;;28.75;47.45;101243.11;1744188;81;20991;-50
2022/07/08 05:44:10;;;;;;;4.90;4.35;;;;;;;28.72;47.50;101243.89;1742970;81;21031;-49
2022/07/08 05:46:36;;;;;;;5.28;4.37;;;;;;;28.71;47.66;101242.18;1741079;82;21077;-51
2022/07/08 05:49:03;;;;;;;4.78;4.37;;;;;;;28.76;47.69;101242.14;1735632;81;21488;-49
2022/07/08 05:51:30;;;;;;;4.47;4.08;;;;;;;28.78;47.30;101246.87;1741338;81;21026;-49
2022/07/08 05:53:57;;;;;;;5.00;4.42;;;;;;;28.82;47.30;101249.63;1742246;81;21039;-51
2022/07/08 05:56:23;;;;;;;4.17;3.85;;;;;;;28.88;47.53;101253.56;1744483;81;21015;-55
2022/07/08 05:58:50;;;;;;;4.70;4.37;;;;;;;28.92;47.28;101249.14;1708574;83;21037;-52
2022/07/08 06:01:17;;;;;;;5.50;4.40;;;;;;;28.97;47.35;101250.89;1706435;83;22193;-49
2022/07/08 06:03:44;;;;;;;5.05;4.20;;;;;;;29.03;47.41;101254.02;1707181;83;21562;-52
2022/07/08 06:06:12;;;;;;;4.90;4.45;;;;;;;29.05;47.58;101254.72;1706543;83;21010;-49
2022/07/08 06:08:39;;;;;;;6.58;3.87;;;;;;;29.09;47.56;101260.16;1709572;83;21065;-49
2022/07/08 06:11:05;;;;;;;4.20;3.87;;;;;;;29.18;47.25;101252.66;1708743;83;21034;-52
2022/07/08 06:13:32;;;;;;;4.20;3.90;;;;;;;29.27;46.96;101251.80;1706302;83;21018;-52
2022/07/08 06:16:00;;;;;;;4.58;3.90;;;;;;;29.29;46.93;101247.14;1705726;83;21501;-52
2022/07/08 06:18:27;;;;;;;4.47;4.08;;;;;;;29.28;46.89;101245.46;1700537;83;21072;-49
2022/07/08 06:20:54;;;;;;;5.08;4.15;;;;;;;29.26;46.80;101244.27;1744719;81;21023;-49
2022/07/08 06:23:21;;;;;;;6.28;3.90;;;;;;;29.30;47.01;101246.17;1743719;81;21050;-49
2022/07/08 06:25:48;;;;;;;4.62;4.15;;;;;;;29.41;46.87;101248.69;1741761;81;21019;-52
2022/07/08 06:28:15;;;;;;;4.87;4.50;;;;;;;29.56;46.48;101249.95;1704689;83;21034;-52
2022/07/08 06:30:42;;;;;;;4.58;4.17;;;;;;;29.69;46.07;101256.73;1708561;83;21612;-51
2022/07/08 06:33:09;;;;;;;5.25;4.58;;;;;;;29.80;45.93;101251.70;1744612;81;20987;-50
2022/07/08 06:35:36;;;;;;;4.70;4.40;;;;;;;29.90;45.77;101249.86;1743488;81;21026;-50
2022/07/08 06:38:03;;;;;;;4.70;4.30;;;;;;;29.99;45.73;101253.00;1741224;81;21535;-49
2022/07/08 06:40:30;;;;;;;4.47;4.15;;;;;;;30.05;45.51;101252.41;1741397;81;21018;-49
2022/07/08 06:42:57;;;;;;;5.10;4.42;;;;;;;30.06;45.66;101248.75;1705599;83;21050;-50
2022/07/08 06:45:24;;;;;;;4.50;4.15;;;;;;;30.02;45.85;101246.01;1705664;83;21030;-51
2022/07/08 06:47:51;;;;;;;4.85;4.45;;;;;;;29.98;46.17;101249.12;1702818;83;21018;-49
2022/07/08 06:50:18;;;;;;;6.62;5.00;;;;;;;29.93;46.18;101250.05;1701165;83;21018;-50
2022/07/08 06:52:46;;;;;;;5.17;4.42;;;;;;;29.89;46.38;101246.81;1705825;83;21566;-53
2022/07/08 06:55:12;;;;;;;6.20;4.83;;;;;;;29.90;46.00;101248.52;1706039;83;20986;-51
2022/07/08 06:57:39;;;;;;;5.40;5.00;;;;;;;29.91;45.19;101247.52;1708212;83;21026;-53
2022/07/08 07:00:08;;;;;;;8.13;5.10;;;;;;;29.95;44.58;101247.57;1708502;83;21471;-50
2022/07/08 07:02:35;;;;;;;6.00;5.33;;;;;;;29.99;44.18;101247.63;1707698;83;21069;-52
2022/07/08 07:05:01;;;;;;;5.75;5.15;;;;;;;30.02;44.09;101246.01;1705994;83;21054;-54
2022/07/08 07:07:28;;;;;;;5.85;5.35;;;;;;;30.08;44.08;101245.91;1706331;83;21026;-53
2022/07/08 07:09:56;;;;;;;5.28;4.78;;;;;;;30.15;44.08;101241.14;1738732;82;21026;-53
2022/07/08 07:12:23;;;;;;;5.42;4.92;;;;;;;30.24;44.30;101242.95;1746859;80;21023;-48
2022/07/08 07:14:51;;;;;;;5.60;4.90;;;;;;;30.27;45.04;101244.02;1737231;81;20993;-52
2022/07/08 07:17:21;;;;;;;5.37;4.87;;;;;;;30.26;45.30;101247.67;1744309;81;21046;-49
2022/07/08 07:19:48;;;;;;;6.30;5.25;;;;;;;30.24;45.65;101244.30;1744600;81;21502;-51
2022/07/08 07:22:16;;;;;;;5.97;5.22;;;;;;;30.24;45.79;101246.98;1746434;82;21042;-50
2022/07/08 07:24:44;;;;;;;7.70;4.72;;;;;;;30.26;46.12;101242.30;1704825;83;20991;-54
2022/07/08 07:27:11;;;;;;;5.12;4.58;;;;;;;30.26;45.96;101244.98;1705761;83;21061;-49
2022/07/08 07:29:38;;;;;;;4.97;4.53;;;;;;;30.27;46.30;101246.70;1705621;83;21061;-52
2022/07/08 07:32:06;;;;;;;7.42;4.40;;;;;;;30.35;46.41;101249.52;1705622;83;21514;-52
2022/07/08 07:34:33;;;;;;;6.12;4.67;;;;;;;30.54;46.00;101250.74;1706800;83;20990;-50
2022/07/08 07:37:00;;;;;;;5.40;4.90;;;;;;;30.69;45.43;101252.92;1744439;81;21047;-55
2022/07/08 07:39:27;;;;;;;4.80;4.40;;;;;;;30.78;44.70;101256.05;1744514;81;21019;-51
2022/07/08 07:41:54;;;;;;;4.55;4.15;;;;;;;30.81;44.67;101253.91;1742310;81;21007;-50
2022/07/08 07:44:21;;;;;;;4.92;4.53;;;;;;;30.84;44.44;101255.45;1741608;82;21050;-49
2022/07/08 07:46:48;;;;;;;5.05;4.65;;;;;;;30.80;44.02;101258.09;1738445;81;21066;-52
2022/07/08 07:49:16;;;;;;;5.25;4.83;;;;;;;30.74;44.09;101255.52;1705582;83;21033;-49
2022/07/08 07:51:44;;;;;;;6.20;5.03;;;;;;;30.69;44.23;101258.29;1705731;83;21490;-50
2022/07/08 07:54:11;;;;;;;5.22;4.83;;;;;;;30.65;44.28;101245.67;1705708;83;21062;-54
2022/07/08 07:56:38;;;;;;;5.03;4.47;;;;;;;30.62;44.55;101247.82;1702168;83;21002;-49
2022/07/08 07:59:05;;;;;;;4.97;4.47;;;;;;;30.60;44.32;101248.47;1708878;83;21014;-52
2022/07/08 08:01:32;;;;;;;5.28;4.87;;;;;;;30.60;44.40;101248.47;1742810;81;21562;-49
2022/07/08 08:03:59;;;;;;;5.58;4.83;;;;;;;30.60;44.53;101247.13;1746961;80;21140;-49
2022/07/08 08:06:28;;;;;;;5.05;4.65;;;;;;;30.62;44.58;101243.79;1713199;83;20974;-50
2022/07/08 08:08:56;;;;;;;5.75;5.20;;;;;;;30.67;44.67;101245.51;1708955;83;21096;-52
2022/07/08 08:11:23;;;;;;;5.28;4.83;;;;;;;30.72;44.92;101243.23;1716347;83;21030;-53
2022/07/08 08:13:50;;;;;;;6.28;5.08;;;;;;;30.75;44.76;101237.56;1712549;83;21558;-50
2022/07/08 08:16:18;;;;;;;6.75;4.35;;;;;;;30.81;45.03;101239.65;1711212;83;21482;-49
2022/07/08 08:18:45;;;;;;;4.90;4.50;;;;;;;30.84;45.18;101225.89;1710749;83;20998;-51
2022/07/08 08:21:12;;;;;;;6.15;4.42;;;;;;;30.89;44.51;101231.70;1710978;83;21470;-49
2022/07/08 08:23:39;;;;;;;5.80;4.30;;;;;;;30.90;44.83;101228.86;1709780;83;20994;-51
2022/07/08 08:26:07;;;;;;;4.85;4.45;;;;;;;30.93;44.80;101232.59;1713945;83;21068;-52
2022/07/08 08:28:34;;;;;;;6.30;5.70;;;;;;;31.00;44.65;101228.77;1711997;83;22490;-48
2022/07/08 08:31:01;;;;;;;5.90;5.30;;;;;;;31.09;44.27;101227.86;1712609;83;21085;-49
2022/07/08 08:33:30;;;;;;;6.20;5.60;;;;;;;31.17;44.42;101226.59;1713065;83;21057;-53
2022/07/08 08:35:56;;;;;;;6.22;5.62;;;;;;;31.28;43.67;101223.67;1714090;83;21069;-52
2022/07/08 08:38:23;;;;;;;7.67;6.05;;;;;;;31.36;43.11;101217.02;1713957;83;21530;-56
2022/07/08 08:40:50;;;;;;;6.08;5.45;;;;;;;31.46;43.61;101220.48;1711819;83;21041;-50
2022/07/08 08:43:17;;;;;;;6.03;5.45;;;;;;;31.57;43.34;101220.74;1699039;83;21576;-49
2022/07/08 08:45:44;;;;;;;6.22;5.72;;;;;;;31.66;43.49;101220.63;1714094;83;20983;-49
2022/07/08 08:48:11;;;;;;;9.90;6.03;;;;;;;31.76;43.54;101225.41;1712392;83;20978;-50
2022/07/08 08:50:56;;;;;;;5.70;5.20;;;;;;;31.90;43.11;101226.16;1711220;83;21498;-51
2022/07/08 08:53:28;;;;;;;5.28;4.87;;;;;;;32.00;42.76;101224.75;1688878;83;21046;-48
2022/07/08 08:55:56;;;;;;;5.37;4.97;;;;;;;32.08;42.45;101225.65;1711268;83;20967;-54
2022/07/08 08:58:23;;;;;;;5.83;5.28;;;;;;;32.15;42.54;101226.35;1711207;83;21017;-48
2022/07/08 09:00:50;;;;;;;5.97;5.50;;;;;;;32.20;42.49;101226.70;1711045;83;21057;-49
2022/07/08 09:03:18;;;;;;;6.08;5.47;;;;;;;32.24;42.48;101222.17;1703500;83;21070;-49
2022/07/08 09:05:47;;;;;;;5.90;5.40;;;;;;;32.31;42.50;101221.03;1694978;84;21090;-49
2022/07/08 09:08:15;;;;;;;7.03;6.33;;;;;;;32.36;42.29;101218.68;1701068;84;21295;-49
2022/07/08 09:10:42;;;;;;;6.28;5.78;;;;;;;32.41;41.33;101207.78;1697243;84;21517;-50
2022/07/08 09:13:15;;;;;;;6.75;6.10;;;;;;;32.46;40.93;101204.63;1736585;81;20988;-50
2022/07/08 09:15:48;;;;;;;6.12;5.62;;;;;;;32.50;40.42;101206.81;1729307;81;20975;-53
2022/07/08 09:18:20;;;;;;;7.40;5.90;;;;;;;32.52;40.48;101209.37;1695549;84;21514;-51
2022/07/08 09:20:54;;;;;;;6.25;5.65;;;;;;;32.53;40.24;101205.65;1698320;84;21511;-48
2022/07/08 09:23:33;;;;;;;6.03;5.53;;;;;;;32.54;40.04;101204.13;1695336;84;21034;-48
2022/07/08 09:26:03;;;;;;;6.78;5.72;;;;;;;32.57;39.87;101200.27;1740364;81;21050;-48
2022/07/08 09:28:37;;;;;;;5.92;5.30;;;;;;;32.60;39.76;101208.86;1734212;81;21003;-48
2022/07/08 09:31:10;;;;;;;7.22;6.35;;;;;;;32.50;39.97;101193.34;1699939;84;21022;-51
2022/07/08 09:33:37;;;;;;;6.10;5.50;;;;;;;32.61;39.59;101195.74;1692085;84;20999;-52
2022/07/08 09:36:06;;;;;;;9.98;5.92;;;;;;;32.67;39.44;101196.92;1664798;85;21553;-49
2022/07/08 09:38:35;;;;;;;6.00;5.45;;;;;;;32.73;39.32;101194.91;1670682;84;21074;-48
2022/07/08 09:41:09;;;;;;;5.95;5.35;;;;;;;32.77;39.61;101203.00;1668489;84;21034;-49
2022/07/08 09:43:50;;;;;;;6.60;5.97;;;;;;;32.81;40.16;101203.02;1667526;84;21547;-51
2022/07/08 09:46:17;;;;;;;5.92;5.42;;;;;;;32.85;40.48;101207.09;1667596;84;21009;-52
2022/07/08 09:48:45;;;;;;;5.97;5.47;;;;;;;32.90;40.41;101204.72;1663434;84;21035;-51
2022/07/08 09:51:17;;;;;;;6.65;6.12;;;;;;;32.96;40.64;101194.62;1666115;84;21071;-48
2022/07/08 09:53:45;;;;;;;6.28;5.78;;;;;;;33.03;40.13;101201.08;1664558;84;21062;-48
2022/07/08 09:56:12;;;;;;;5.87;5.37;;;;;;;33.06;39.63;101195.33;1666359;84;21142;-48
2022/07/08 09:58:39;;;;;;;5.40;4.90;;;;;;;33.09;39.33;101193.66;1662697;85;21047;-52
2022/07/08 10:01:06;;;;;;;5.53;5.03;;;;;;;33.12;39.34;101186.56;1668687;84;21574;-51
2022/07/08 10:03:35;;;;;;;8.18;5.97;;;;;;;33.18;38.93;101187.24;1667131;84;21126;-49
2022/07/08 10:06:02;;;;;;;6.10;5.40;;;;;;;33.23;38.42;101186.24;1666894;84;21058;-49
2022/07/08 10:08:29;;;;;;;6.35;5.58;;;;;;;33.29;38.20;101187.41;1668099;85;21030;-48
2022/07/08 10:10:57;;;;;;;5.62;5.12;;;;;;;33.34;37.64;101178.32;1668947;85;21109;-52
2022/07/08 10:13:25;;;;;;;5.60;5.10;;;;;;;33.37;37.51;101177.46;1668904;84;21575;-52
2022/07/08 10:15:58;;;;;;;6.90;6.12;;;;;;;33.40;37.62;101173.09;1656182;84;21093;-49
2022/07/08 10:18:37;;;;;;;6.30;5.80;;;;;;;33.44;37.48;101178.98;1675238;85;21031;-48
2022/07/08 10:21:05;;;;;;;6.15;5.08;;;;;;;33.47;37.35;101174.08;1657791;85;21022;-51
2022/07/08 10:23:50;;;;;;;5.22;4.83;;;;;;;33.53;37.23;101172.60;1646560;85;21054;-49
2022/07/08 10:26:20;;;;;;;5.92;5.42;;;;;;;33.57;36.97;101164.50;1639842;86;21107;-53
2022/07/08 10:28:52;;;;;;;7.92;5.80;;;;;;;33.61;36.88;101172.05;1639730;86;21043;-49
2022/07/08 10:31:23;;;;;;;6.75;5.58;;;;;;;33.64;37.00;101154.68;1557633;91;21142;-53
2022/07/08 10:33:50;;;;;;;;;;;;;;;33.70;36.59;101162.09;1574617;91;21077;-49
2022/07/08 10:36:21;;;;;;;5.92;5.17;;;;;;;33.73;36.20;101160.91;1619378;86;20094;-49
2022/07/08 10:41:20;;;;;;;5.90;5.47;;;;;;;33.77;35.92;101156.84;1637425;86;21578;-49
2022/07/08 10:44:02;;;;;;;6.70;6.10;;;;;;;33.79;35.90;101152.96;1637336;86;21050;-49
2022/07/08 10:46:29;;;;;;;6.08;5.45;;;;;;;33.81;35.73;101153.62;1634038;85;21110;-48
2022/07/08 10:49:00;;;;;;;6.35;5.75;;;;;;;33.83;35.94;101146.70;1637254;86;21054;-51
2022/07/08 10:51:37;;;;;;;7.30;5.85;;;;;;;33.86;35.61;101149.06;1627070;88;21069;-49
2022/07/08 10:54:05;;;;;;;7.00;5.70;;;;;;;33.88;35.69;101145.69;1626246;86;21105;-48
2022/07/08 10:59:32;;;;;;;6.95;5.72;;;;;;;34.00;35.74;101149.72;1607501;86;21104;-48
2022/07/08 11:02:16;;;;;;;6.15;4.80;;;;;;;34.08;35.63;101149.68;1616813;87;21041;-53
2022/07/08 11:04:46;;;;;;;5.67;4.78;;;;;;;34.14;35.12;101155.73;1597890;87;21192;-49
2022/07/08 11:10:09;;;;;;;5.35;4.72;;;;;;;34.20;34.45;101149.12;1634298;86;21068;-53
2022/07/08 11:12:39;;;;;;;5.58;5.12;;;;;;;34.24;34.46;101146.89;1538919;92;21090;-51
2022/07/08 11:15:12;;;;;;;;;;;;;;;34.26;33.93;101139.45;1539493;92;21050;-51
2022/07/08 11:17:41;;;;;;;5.20;4.78;;;;;;;34.25;33.75;101137.25;1549631;91;20431;-48
2022/07/08 11:20:11;;;;;;;5.53;5.03;;;;;;;34.24;33.51;101134.73;1552128;92;21539;-50
2022/07/08 11:22:39;;;;;;;5.25;4.85;;;;;;;34.27;33.70;101137.10;1550755;92;21106;-51
2022/07/08 11:25:08;;;;;;;5.87;5.25;;;;;;;34.28;33.56;101137.42;1550443;92;21136;-50
2022/07/08 11:27:36;;;;;;;6.30;5.37;;;;;;;34.34;33.70;101128.59;1551429;92;21070;-52
2022/07/08 11:30:13;;;;;;;6.55;5.22;;;;;;;34.36;33.29;101123.86;1551816;92;21114;-50
2022/07/08 11:32:40;;;;;;;6.75;5.72;;;;;;;34.39;33.19;101130.27;1552063;92;21603;-50
2022/07/08 11:35:09;;;;;;;6.58;5.70;;;;;;;34.43;33.36;101124.84;1551918;92;21180;-52
2022/07/08 11:37:44;;;;;;;6.05;5.42;;;;;;;34.44;33.26;101120.60;1555175;91;21097;-48
2022/07/08 11:40:16;;;;;;;6.60;4.95;;;;;;;34.48;33.16;101117.02;1566453;89;21085;-49